Ocean Navigator — WSC2552 — position and weather

sailwx.info

Track history (hours):
 
Tides and Currents Weather Stations Pressure Air Temp Water Temp Dewpoint Dewpoint Depression Visibility Wind Speed Wind Dir Waves Ship Positions

Ocean Navigator

Owner: OCEAN NAVIGATOR INC, SEATTLE, WA. More information available from US FCC via Universal Licensing System and Coast Guard Vessel Documentation Center.

Last reported at 2017-May-19 18:46 UTC. Time now 2017-May-26 15:01 UTC.
Position N 47°34' W 122°21'.

Type: Towing. MMSI: 366358000.

Date/timePositionNaut miles runAvg speedWind from/ knotsBaromVisibWave heightAir tempDewpointWater temp
2017-May-19 18:46N 47°34' W 122°21'0 1.4
2017-May-19 18:30N 47°34' W 122°21'1 1.1
2017-May-19 18:01N 47°35' W 122°22'1 1.1
2017-May-19 17:30N 47°35' W 122°21'1 0.1
2017-May-18 19:14N 47°34' W 122°21'0 0.0
2017-May-18 19:00N 47°34' W 122°21'0 0.0
2017-May-18 18:30N 47°34' W 122°21'0 0.0
2017-May-18 18:00N 47°34' W 122°21'0 0.0
2017-May-16 19:42N 47°34' W 122°21'0 0.7
2017-May-16 19:30N 47°34' W 122°21'1 2.1
2017-May-16 19:00N 47°33' W 122°20'3 5.4
2017-May-16 18:30N 47°35' W 122°22'4 7.2
2017-May-16 18:00N 47°35' W 122°27'3 6.9
2017-May-16 17:30N 47°35' W 122°32'3 6.5
2017-May-16 17:00N 47°34' W 122°37'3 6.0
2017-May-16 16:31N 47°32' W 122°41'0 0.3
2017-May-16 16:00N 47°32' W 122°41'2 3.8
2017-May-16 15:30N 47°33' W 122°39'5 9.0
2017-May-16 15:01N 47°35' W 122°32'5 9.3
2017-May-16 14:30N 47°35' W 122°25'  
2017-May-12 05:43N 47°34' W 122°21'0 2.0
2017-May-12 05:30N 47°34' W 122°21'1 2.8
2017-May-12 05:01N 47°36' W 122°22'2 4.1
2017-May-12 04:30N 47°37' W 122°24'4 7.7
2017-May-12 04:00N 47°40' W 122°28'4 7.7
2017-May-12 03:30N 47°44' W 122°27'4 8.2
2017-May-12 03:00N 47°48' W 122°27'5 8.4
2017-May-12 02:24N 47°53' W 122°29'3 8.4
2017-May-12 02:00N 47°56' W 122°31'20 9.3
2017-May-11 23:54N 48°12' W 122°48'4 9.9
2017-May-11 23:27N 48°16' W 122°48'8 8.9
2017-May-11 22:31N 48°24' W 122°45'1 8.3
2017-May-11 22:28N 48°25' W 122°45'4 8.4
2017-May-11 22:00N 48°29' W 122°45'4 8.2
2017-May-11 21:30N 48°33' W 122°45'4 8.3
2017-May-11 21:00N 48°37' W 122°45'4 8.7
2017-May-11 20:30N 48°41' W 122°44'13 9.6
2017-May-11 19:11N 48°50' W 122°58'410.2
2017-May-11 18:45N 48°52' W 123°03'3 9.8
2017-May-11 18:27N 48°54' W 123°07'5 9.7
2017-May-11 17:59N 48°57' W 123°12'6 9.6
2017-May-11 17:21N 49°01' W 123°19'3 9.3
2017-May-11 16:59N 49°03' W 123°23'4 8.9
2017-May-11 16:30N 49°08' W 123°23'5 9.5
2017-May-11 16:00N 49°12' W 123°21'5 9.1
2017-May-11 15:30N 49°17' W 123°20'5 9.0
2017-May-11 15:00N 49°19' W 123°14'6 5.9
2017-May-11 14:00N 49°18' W 123°05'0 0.2
2017-May-11 13:30N 49°18' W 123°05'0 0.3
2017-May-11 13:00N 49°18' W 123°05'3 5.9
2017-May-11 12:30N 49°19' W 123°09'3 6.7
2017-May-11 12:00N 49°18' W 123°14'3 6.6
2017-May-11 11:30N 49°16' W 123°18'4 7.3
2017-May-11 11:00N 49°12' W 123°19'4 7.0
2017-May-11 10:28N 49°09' W 123°20'3 6.6
2017-May-11 10:00N 49°06' W 123°20'4 6.2
2017-May-11 09:20N 49°02' W 123°17'4 6.5
2017-May-11 08:39N 48°59' W 123°12'1 6.8
2017-May-11 08:26N 48°58' W 123°10'3 7.1
2017-May-11 08:00N 48°56' W 123°07'4 7.1
2017-May-11 07:30N 48°54' W 123°03'4 6.6
2017-May-11 06:51N 48°51' W 122°58'9 9.2
2017-May-11 05:52N 48°46' W 122°47'3 9.3
2017-May-11 05:30N 48°43' W 122°44'4 8.4
2017-May-11 05:00N 48°39' W 122°43'4 8.2
2017-May-11 04:30N 48°35' W 122°45'5 9.1
2017-May-11 04:00N 48°30' W 122°44'5 9.9
2017-May-11 03:28N 48°25' W 122°44'8 9.9
2017-May-11 02:37N 48°17' W 122°47'2 9.7
2017-May-11 02:27N 48°15' W 122°47'13 9.0
2017-May-11 01:02N 48°04' W 122°38'0 9.2
2017-May-11 01:00N 48°03' W 122°38'5 8.6
2017-May-11 00:26N 47°59' W 122°35'4 8.3
2017-May-11 00:00N 47°57' W 122°31'4 8.6
2017-May-10 23:30N 47°53' W 122°28'5 9.6
2017-May-10 23:00N 47°48' W 122°26'5 9.1
2017-May-10 22:30N 47°44' W 122°26'5 9.2
2017-May-10 22:00N 47°39' W 122°27'5 9.1
2017-May-10 21:31N 47°36' W 122°22'4 7.3
2017-May-10 21:00N 47°38' W 122°26'510.3
2017-May-10 20:30N 47°43' W 122°28'510.4
2017-May-10 20:00N 47°48' W 122°28'510.1
2017-May-10 19:30N 47°53' W 122°30'5 9.0
2017-May-10 19:00N 47°57' W 122°34'19 7.2
2017-May-10 16:23N 48°13' W 122°49'4 9.6
2017-May-10 16:00N 48°16' W 122°48'910.8
2017-May-10 15:13N 48°25' W 122°45'312.0
2017-May-10 15:00N 48°27' W 122°45'1111.4
2017-May-10 14:00N 48°37' W 122°37'5 9.3
2017-May-10 13:30N 48°41' W 122°33'3 5.3
2017-May-10 13:00N 48°44' W 122°31'0 0.2
2017-May-10 12:30N 48°44' W 122°31'0 0.1
2017-May-10 11:57N 48°43' W 122°31'0 0.2
2017-May-10 11:30N 48°44' W 122°31'0 0.1
2017-May-10 10:58N 48°44' W 122°31'2 3.5
2017-May-10 10:28N 48°43' W 122°33'2 4.2
2017-May-10 10:00N 48°41' W 122°34'3 5.9
2017-May-10 09:30N 48°43' W 122°31'2 3.7
2017-May-10 09:00N 48°42' W 122°33'3 6.5
2017-May-10 08:30N 48°39' W 122°34'3 6.6
2017-May-10 08:00N 48°37' W 122°38'5 9.6
2017-May-10 07:30N 48°32' W 122°41'510.3
2017-May-10 07:00N 48°28' W 122°44'1210.9
2017-May-10 05:53N 48°16' W 122°47'1712.0
2017-May-10 04:28N 48°00' W 122°36'612.9
2017-May-10 04:00N 47°56' W 122°30'611.6
2017-May-10 03:30N 47°51' W 122°27'611.0
2017-May-10 03:00N 47°45' W 122°26'611.1
2017-May-10 02:30N 47°40' W 122°27'510.8
2017-May-10 02:00N 47°36' W 122°22'2 3.2
2017-May-10 01:30N 47°34' W 122°21'0 0.0
2017-May-10 01:00N 47°34' W 122°21'  
Track history (hours):
 
Tides and Currents Weather Stations Pressure Air Temp Water Temp Dewpoint Dewpoint Depression Visibility Wind Speed Wind Dir Waves Ship Positions

Ocean Navigator

Owner: OCEAN NAVIGATOR INC, SEATTLE, WA. More information available from US FCC via Universal Licensing System and Coast Guard Vessel Documentation Center.

Last reported at 2017-May-19 18:46 UTC. Time now 2017-May-26 15:01 UTC.
Position N 47°34' W 122°21'.

Type: Towing. MMSI: 366358000.

Date/timePositionNaut miles runAvg speedWind from/ knotsBaromVisibWave heightAir tempDewpointWater temp
2017-May-19 18:46N 47°34' W 122°21'0 1.4
2017-May-19 18:30N 47°34' W 122°21'1 1.1
2017-May-19 18:01N 47°35' W 122°22'1 1.1
2017-May-19 17:30N 47°35' W 122°21'1 0.1
2017-May-18 19:14N 47°34' W 122°21'0 0.0
2017-May-18 19:00N 47°34' W 122°21'0 0.0
2017-May-18 18:30N 47°34' W 122°21'0 0.0
2017-May-18 18:00N 47°34' W 122°21'0 0.0
2017-May-16 19:42N 47°34' W 122°21'0 0.7
2017-May-16 19:30N 47°34' W 122°21'1 2.1
2017-May-16 19:00N 47°33' W 122°20'3 5.4
2017-May-16 18:30N 47°35' W 122°22'4 7.2
2017-May-16 18:00N 47°35' W 122°27'3 6.9
2017-May-16 17:30N 47°35' W 122°32'3 6.5
2017-May-16 17:00N 47°34' W 122°37'3 6.0
2017-May-16 16:31N 47°32' W 122°41'0 0.3
2017-May-16 16:00N 47°32' W 122°41'2 3.8
2017-May-16 15:30N 47°33' W 122°39'5 9.0
2017-May-16 15:01N 47°35' W 122°32'5 9.3
2017-May-16 14:30N 47°35' W 122°25'  
2017-May-12 05:43N 47°34' W 122°21'0 2.0
2017-May-12 05:30N 47°34' W 122°21'1 2.8
2017-May-12 05:01N 47°36' W 122°22'2 4.1
2017-May-12 04:30N 47°37' W 122°24'4 7.7
2017-May-12 04:00N 47°40' W 122°28'4 7.7
2017-May-12 03:30N 47°44' W 122°27'4 8.2
2017-May-12 03:00N 47°48' W 122°27'5 8.4
2017-May-12 02:24N 47°53' W 122°29'3 8.4
2017-May-12 02:00N 47°56' W 122°31'20 9.3
2017-May-11 23:54N 48°12' W 122°48'4 9.9
2017-May-11 23:27N 48°16' W 122°48'8 8.9
2017-May-11 22:31N 48°24' W 122°45'1 8.3
2017-May-11 22:28N 48°25' W 122°45'4 8.4
2017-May-11 22:00N 48°29' W 122°45'4 8.2
2017-May-11 21:30N 48°33' W 122°45'4 8.3
2017-May-11 21:00N 48°37' W 122°45'4 8.7
2017-May-11 20:30N 48°41' W 122°44'13 9.6
2017-May-11 19:11N 48°50' W 122°58'410.2
2017-May-11 18:45N 48°52' W 123°03'3 9.8
2017-May-11 18:27N 48°54' W 123°07'5 9.7
2017-May-11 17:59N 48°57' W 123°12'6 9.6
2017-May-11 17:21N 49°01' W 123°19'3 9.3
2017-May-11 16:59N 49°03' W 123°23'4 8.9
2017-May-11 16:30N 49°08' W 123°23'5 9.5
2017-May-11 16:00N 49°12' W 123°21'5 9.1
2017-May-11 15:30N 49°17' W 123°20'5 9.0
2017-May-11 15:00N 49°19' W 123°14'6 5.9
2017-May-11 14:00N 49°18' W 123°05'0 0.2
2017-May-11 13:30N 49°18' W 123°05'0 0.3
2017-May-11 13:00N 49°18' W 123°05'3 5.9
2017-May-11 12:30N 49°19' W 123°09'3 6.7
2017-May-11 12:00N 49°18' W 123°14'3 6.6
2017-May-11 11:30N 49°16' W 123°18'4 7.3
2017-May-11 11:00N 49°12' W 123°19'4 7.0
2017-May-11 10:28N 49°09' W 123°20'3 6.6
2017-May-11 10:00N 49°06' W 123°20'4 6.2
2017-May-11 09:20N 49°02' W 123°17'4 6.5
2017-May-11 08:39N 48°59' W 123°12'1 6.8
2017-May-11 08:26N 48°58' W 123°10'3 7.1
2017-May-11 08:00N 48°56' W 123°07'4 7.1
2017-May-11 07:30N 48°54' W 123°03'4 6.6
2017-May-11 06:51N 48°51' W 122°58'9 9.2
2017-May-11 05:52N 48°46' W 122°47'3 9.3
2017-May-11 05:30N 48°43' W 122°44'4 8.4
2017-May-11 05:00N 48°39' W 122°43'4 8.2
2017-May-11 04:30N 48°35' W 122°45'5 9.1
2017-May-11 04:00N 48°30' W 122°44'5 9.9
2017-May-11 03:28N 48°25' W 122°44'8 9.9
2017-May-11 02:37N 48°17' W 122°47'2 9.7
2017-May-11 02:27N 48°15' W 122°47'13 9.0
2017-May-11 01:02N 48°04' W 122°38'0 9.2
2017-May-11 01:00N 48°03' W 122°38'5 8.6
2017-May-11 00:26N 47°59' W 122°35'4 8.3
2017-May-11 00:00N 47°57' W 122°31'4 8.6
2017-May-10 23:30N 47°53' W 122°28'5 9.6
2017-May-10 23:00N 47°48' W 122°26'5 9.1
2017-May-10 22:30N 47°44' W 122°26'5 9.2
2017-May-10 22:00N 47°39' W 122°27'5 9.1
2017-May-10 21:31N 47°36' W 122°22'4 7.3
2017-May-10 21:00N 47°38' W 122°26'510.3
2017-May-10 20:30N 47°43' W 122°28'510.4
2017-May-10 20:00N 47°48' W 122°28'510.1
2017-May-10 19:30N 47°53' W 122°30'5 9.0
2017-May-10 19:00N 47°57' W 122°34'19 7.2
2017-May-10 16:23N 48°13' W 122°49'4 9.6
2017-May-10 16:00N 48°16' W 122°48'910.8
2017-May-10 15:13N 48°25' W 122°45'312.0
2017-May-10 15:00N 48°27' W 122°45'1111.4
2017-May-10 14:00N 48°37' W 122°37'5 9.3
2017-May-10 13:30N 48°41' W 122°33'3 5.3
2017-May-10 13:00N 48°44' W 122°31'0 0.2
2017-May-10 12:30N 48°44' W 122°31'0 0.1
2017-May-10 11:57N 48°43' W 122°31'0 0.2
2017-May-10 11:30N 48°44' W 122°31'0 0.1
2017-May-10 10:58N 48°44' W 122°31'2 3.5
2017-May-10 10:28N 48°43' W 122°33'2 4.2
2017-May-10 10:00N 48°41' W 122°34'3 5.9
2017-May-10 09:30N 48°43' W 122°31'2 3.7
2017-May-10 09:00N 48°42' W 122°33'3 6.5
2017-May-10 08:30N 48°39' W 122°34'3 6.6
2017-May-10 08:00N 48°37' W 122°38'5 9.6
2017-May-10 07:30N 48°32' W 122°41'510.3
2017-May-10 07:00N 48°28' W 122°44'1210.9
2017-May-10 05:53N 48°16' W 122°47'1712.0
2017-May-10 04:28N 48°00' W 122°36'612.9
2017-May-10 04:00N 47°56' W 122°30'611.6
2017-May-10 03:30N 47°51' W 122°27'611.0
2017-May-10 03:00N 47°45' W 122°26'611.1
2017-May-10 02:30N 47°40' W 122°27'510.8
2017-May-10 02:00N 47°36' W 122°22'2 3.2
2017-May-10 01:30N 47°34' W 122°21'0 0.0
2017-May-10 01:00N 47°34' W 122°21'  

Dump ship's entire track history